Time;durP1;ratioP1;P1;durP2;ratioP2;P2;SDS_P1;SDS_P2;PMS_P1;PMS_P2;Temp;Humidity;BMP_temperature;BMP_pressure;BME280_temperature;BME280_humidity;BME280_pressure;Samples;Min_cycle;Max_cycle;Signal;HPM_P1;HPM_P2
2022/04/23 00:02:59;;;;;;;14.93;13.33;;;;;;;6.55;89.50;96644.28;6155929;28;20241;-82
2022/04/23 00:06:02;;;;;;;13.67;12.27;;;;;;;6.55;89.32;96640.81;6116618;28;20738;-83
2022/04/23 00:09:05;;;;;;;14.00;12.47;;;;;;;6.54;89.31;96642.63;6155047;28;20503;-82
2022/04/23 00:12:08;;;;;;;12.13;10.93;;;;;;;6.53;89.96;96632.25;6154161;28;20563;-82
2022/04/23 00:15:10;;;;;;;13.87;12.47;;;;;;;6.56;89.79;96630.22;6151987;28;20223;-82
2022/04/23 00:18:12;;;;;;;14.27;12.77;;;;;;;6.61;89.76;96632.44;6154165;28;20276;-82
2022/04/23 00:21:14;;;;;;;13.40;12.00;;;;;;;6.62;89.17;96631.50;6156142;28;20240;-83
2022/04/23 00:24:17;;;;;;;11.80;10.60;;;;;;;6.61;89.07;96632.44;6154659;28;20265;-82
2022/04/23 00:27:19;;;;;;;13.23;11.83;;;;;;;6.63;89.62;96643.66;6172047;28;20217;-82
2022/04/23 00:30:21;;;;;;;12.30;11.00;;;;;;;6.64;89.74;96640.91;6154390;28;20235;-82
2022/04/23 00:33:23;;;;;;;12.40;11.13;;;;;;;6.65;89.96;96641.75;6154575;28;20668;-82
2022/04/23 00:36:26;;;;;;;13.67;11.17;;;;;;;6.64;89.71;96640.91;6154267;28;20308;-82
2022/04/23 00:39:28;;;;;;;11.73;10.63;;;;;;;6.63;89.56;96644.50;6155698;28;20227;-83
2022/04/23 00:42:31;;;;;;;13.17;11.70;;;;;;;6.64;89.39;96646.16;6138592;28;20232;-82
2022/04/23 00:45:33;;;;;;;13.63;12.07;;;;;;;6.65;89.50;96642.59;6154627;28;20239;-82
2022/04/23 00:48:35;;;;;;;13.73;12.33;;;;;;;6.64;89.55;96640.09;6154890;28;20226;-82
2022/04/23 00:51:39;;;;;;;13.17;11.83;;;;;;;6.63;89.16;96647.09;6154291;28;20729;-82
2022/04/23 00:54:41;;;;;;;13.87;12.47;;;;;;;6.64;89.21;96645.31;6153734;28;20281;-82
2022/04/23 00:57:43;;;;;;;13.87;12.30;;;;;;;6.65;89.86;96650.44;6153663;28;20828;-82
2022/04/23 01:00:46;;;;;;;14.07;12.60;;;;;;;6.64;89.75;96645.31;6138464;28;20541;-82
2022/04/23 01:03:50;;;;;;;13.17;11.77;;;;;;;6.65;89.55;96649.63;6137560;28;20234;-82
2022/04/23 01:06:52;;;;;;;13.50;12.10;;;;;;;6.69;89.62;96647.59;6153881;28;20241;-82
2022/04/23 01:09:54;;;;;;;14.63;13.07;;;;;;;6.71;89.54;96650.88;6153230;28;20326;-82
2022/04/23 01:12:56;;;;;;;12.67;11.30;;;;;;;6.70;89.55;96643.97;6154655;28;20294;-82
2022/04/23 01:16:04;;;;;;;12.80;11.50;;;;;;;6.70;89.54;96649.22;6137536;28;20366;-83
2022/04/23 01:19:06;;;;;;;14.40;12.57;;;;;;;6.65;89.48;96647.81;6156000;28;20730;-82
2022/04/23 01:22:11;;;;;;;17.03;14.43;;;;;;;6.66;89.98;96646.03;6158817;28;20236;-82
2022/04/23 01:25:14;;;;;;;13.17;11.77;;;;;;;6.65;89.54;96641.75;6158025;28;20224;-82
2022/04/23 01:28:18;;;;;;;15.43;13.80;;;;;;;6.65;89.40;96647.81;6131710;28;20250;-82
2022/04/23 01:31:21;;;;;;;12.60;11.33;;;;;;;6.69;89.68;96650.22;6140590;28;20325;-82
2022/04/23 01:34:23;;;;;;;13.07;11.60;;;;;;;6.72;89.43;96652.56;6145438;28;20859;-82
2022/04/23 01:37:30;;;;;;;14.20;12.00;;;;;;;6.73;89.93;96651.59;6143110;28;20622;-82
2022/04/23 01:40:32;;;;;;;14.57;13.03;;;;;;;6.75;89.72;96647.91;6137291;28;20238;-82
2022/04/23 01:43:34;;;;;;;12.67;11.00;;;;;;;6.73;89.63;96648.97;6153669;28;20640;-83
2022/04/23 01:46:36;;;;;;;16.33;14.53;;;;;;;6.74;89.84;96653.28;6154850;28;20599;-82
2022/04/23 01:49:39;;;;;;;14.07;12.47;;;;;;;6.74;89.48;96651.47;6155449;28;20264;-82
2022/04/23 01:52:41;;;;;;;12.07;10.87;;;;;;;6.74;89.84;96651.47;6153482;28;20316;-82
2022/04/23 01:55:43;;;;;;;12.97;11.60;;;;;;;6.75;89.66;96655.78;6154810;28;20373;-82
2022/04/23 01:58:45;;;;;;;14.60;13.07;;;;;;;6.75;89.89;96653.16;6141889;28;20235;-82
2022/04/23 02:01:48;;;;;;;12.00;10.80;;;;;;;6.75;89.49;96655.78;6158529;28;20325;-82
2022/04/23 02:04:51;;;;;;;12.60;11.30;;;;;;;6.77;89.74;96663.53;6158036;28;20824;-82
2022/04/23 02:07:52;;;;;;;12.33;10.60;;;;;;;6.77;89.75;96659.13;6158753;28;20727;-82
2022/04/23 02:10:55;;;;;;;12.37;11.07;;;;;;;6.79;89.52;96654.53;6158871;28;20797;-82
2022/04/23 02:13:57;;;;;;;14.73;13.13;;;;;;;6.80;90.02;96647.50;6173952;28;20641;-82
2022/04/23 02:16:59;;;;;;;12.27;10.97;;;;;;;6.81;89.75;96654.44;6156978;28;20235;-82
2022/04/23 02:20:06;;;;;;;12.43;11.13;;;;;;;6.81;89.85;96649.19;6157528;28;20225;-83
2022/04/23 02:23:08;;;;;;;11.27;10.13;;;;;;;6.81;89.77;96650.03;6153925;28;20281;-82
2022/04/23 02:26:10;;;;;;;13.90;12.50;;;;;;;6.84;90.02;96659.44;6168176;28;20369;-82
2022/04/23 02:29:12;;;;;;;11.90;10.67;;;;;;;6.85;89.84;96656.69;6167762;28;20778;-82
2022/04/23 02:32:14;;;;;;;11.87;10.33;;;;;;;6.85;89.49;96663.72;6157810;28;20233;-82
2022/04/23 02:35:19;;;;;;;14.30;11.63;;;;;;;6.84;90.41;96657.66;6157012;28;20325;-82
2022/04/23 02:38:21;;;;;;;16.53;14.50;;;;;;;6.83;90.05;96652.53;6158049;28;20229;-82
2022/04/23 02:41:23;;;;;;;12.27;10.97;;;;;;;6.82;89.69;96658.72;6149699;28;20321;-82
2022/04/23 02:44:25;;;;;;;15.43;13.03;;;;;;;6.83;89.80;96652.53;6141232;28;20232;-82
2022/04/23 02:47:40;;;;;;;14.67;13.00;;;;;;;6.85;89.89;96664.56;6156350;28;20278;-82
2022/04/23 02:50:42;;;;;;;12.80;10.90;;;;;;;6.83;89.93;96661.22;6156554;28;20330;-82
2022/04/23 02:53:44;;;;;;;11.70;10.43;;;;;;;6.85;90.05;96661.09;6156819;28;20786;-82
2022/04/23 02:56:50;;;;;;;15.80;13.40;;;;;;;6.86;90.04;96654.91;6141034;28;20617;-82
2022/04/23 02:59:52;;;;;;;13.07;11.67;;;;;;;6.85;90.09;96659.31;6140182;28;20301;-82
2022/04/23 03:02:54;;;;;;;15.17;13.43;;;;;;;6.86;90.22;96660.16;6157991;28;20598;-82
2022/04/23 03:05:57;;;;;;;13.17;11.47;;;;;;;6.86;90.59;96657.53;6156126;28;20593;-82
2022/04/23 03:09:03;;;;;;;14.17;12.67;;;;;;;6.88;90.08;96655.63;6154628;28;20240;-82
2022/04/23 03:12:05;;;;;;;14.40;12.67;;;;;;;6.88;90.34;96664.31;6117785;28;20782;-82
2022/04/23 03:15:09;;;;;;;16.53;14.30;;;;;;;6.90;90.11;96666.78;6141340;28;20325;-82
2022/04/23 03:18:13;;;;;;;16.63;14.83;;;;;;;6.90;89.87;96669.41;6140138;28;20217;-82
2022/04/23 03:21:16;;;;;;;21.73;17.10;;;;;;;6.88;90.12;96674.81;6141979;28;20713;-82
2022/04/23 03:24:18;;;;;;;22.53;16.77;;;;;;;6.90;90.07;96672.03;6133471;28;20761;-82
2022/04/23 03:27:20;;;;;;;23.33;18.07;;;;;;;6.89;90.07;96683.47;6177819;28;20229;-82
2022/04/23 03:30:22;;;;;;;23.53;18.73;;;;;;;6.89;89.77;96683.47;6172599;28;20295;-82
2022/04/23 03:33:24;;;;;;;31.07;23.07;;;;;;;6.89;90.25;96681.69;6172760;28;20697;-82
2022/04/23 03:36:26;;;;;;;39.60;28.77;;;;;;;6.91;90.45;96690.28;6139986;28;20229;-82
2022/04/23 03:39:28;;;;;;;55.10;36.67;;;;;;;6.92;90.31;96688.47;6155636;28;20342;-82
2022/04/23 03:42:30;;;;;;;73.53;43.77;;;;;;;6.93;90.21;96690.16;6139639;28;20283;-82
2022/04/23 03:45:33;;;;;;;79.93;47.70;;;;;;;6.93;90.71;96683.13;6155106;28;20235;-82
2022/04/23 04:48:25;;;;;;;61.13;38.17;;;;;;;6.95;90.90;96683.84;3583039;28;22156;-84
2022/04/23 04:51:28;;;;;;;66.73;44.03;;;;;;;6.96;90.67;96692.53;6122565;28;20228;-82
2022/04/23 04:54:30;;;;;;;57.10;38.67;;;;;;;6.98;90.61;96696.72;6129427;28;20323;-82
2022/04/23 04:57:32;;;;;;;62.37;41.67;;;;;;;7.00;90.44;96697.38;6114370;28;20598;-82
2022/04/23 05:00:35;;;;;;;59.57;40.87;;;;;;;7.04;90.27;96698.81;6129138;28;20239;-82
2022/04/23 05:03:39;;;;;;;52.00;35.03;;;;;;;7.07;90.71;96700.38;6131503;28;20241;-82
2022/04/23 05:06:41;;;;;;;57.50;39.43;;;;;;;7.10;90.18;96694.00;6112540;28;20708;-82
2022/04/23 05:09:43;;;;;;;59.47;41.53;;;;;;;7.10;90.64;96704.50;6146035;28;20727;-83
2022/04/23 05:12:45;;;;;;;53.70;37.10;;;;;;;7.12;90.60;96711.28;6129561;28;20236;-82
2022/04/23 05:15:48;;;;;;;53.27;36.63;;;;;;;7.14;90.30;96701.50;6121734;28;20790;-83
2022/04/23 05:18:50;;;;;;;50.10;34.57;;;;;;;7.20;90.00;96710.66;6126192;28;20233;-83
2022/04/23 05:21:52;;;;;;;49.67;34.27;;;;;;;7.21;90.39;96710.53;6144652;28;20226;-82
2022/04/23 05:24:54;;;;;;;52.30;37.30;;;;;;;7.23;90.51;96716.50;6143999;28;20278;-82
2022/04/23 05:27:58;;;;;;;44.53;33.03;;;;;;;7.25;89.92;96724.25;6127527;28;20385;-83
2022/04/23 05:31:01;;;;;;;48.40;35.57;;;;;;;7.23;89.72;96729.63;6129729;28;20779;-83
2022/04/23 05:34:04;;;;;;;49.27;35.97;;;;;;;7.22;89.91;96732.38;6133524;28;20237;-83
2022/04/23 05:37:06;;;;;;;43.50;33.70;;;;;;;7.20;89.61;96740.34;6131902;28;20671;-82
2022/04/23 05:40:09;;;;;;;53.17;38.20;;;;;;;7.22;89.42;96741.06;6146699;28;20285;-82
2022/04/23 05:43:11;;;;;;;48.83;35.83;;;;;;;7.21;89.60;96739.41;6119425;28;20236;-82
2022/04/23 05:46:15;;;;;;;48.13;36.67;;;;;;;7.18;88.77;96747.53;6134163;28;20380;-82
2022/04/23 05:49:17;;;;;;;47.47;35.07;;;;;;;7.19;88.98;96753.59;6105270;28;20722;-82
2022/04/23 05:52:39;;;;;;;44.80;34.33;;;;;;;7.21;88.99;96756.94;6158053;28;20237;-82
2022/04/23 05:55:41;;;;;;;48.47;35.67;;;;;;;7.22;89.21;96762.06;6142377;28;20252;-82
2022/04/23 05:58:43;;;;;;;54.23;39.67;;;;;;;7.23;88.79;96766.34;6156937;28;20364;-83
2022/04/23 06:01:45;;;;;;;47.13;34.60;;;;;;;7.22;89.05;96775.19;6157242;28;20224;-83
2022/04/23 06:04:49;;;;;;;53.37;37.93;;;;;;;7.19;88.45;96777.22;6149265;28;20713;-82
2022/04/23 06:07:51;;;;;;;49.23;37.03;;;;;;;7.21;88.65;96777.94;6148655;28;20787;-82
2022/04/23 06:10:53;;;;;;;45.43;33.87;;;;;;;7.24;88.51;96773.28;6156909;28;20746;-82
2022/04/23 06:13:55;;;;;;;45.00;33.83;;;;;;;7.30;88.76;96783.25;6173706;28;20240;-83
2022/04/23 06:16:57;;;;;;;46.83;34.73;;;;;;;7.35;88.88;96780.28;6157029;28;20222;-83
2022/04/23 06:20:00;;;;;;;38.60;29.83;;;;;;;7.40;88.55;96772.84;6155528;28;20611;-83
2022/04/23 06:23:04;;;;;;;38.70;30.23;;;;;;;7.47;88.40;96789.78;6156460;28;20237;-83
2022/04/23 06:26:06;;;;;;;50.43;36.13;;;;;;;7.48;88.16;96788.00;6158795;28;20330;-82
2022/04/23 06:29:08;;;;;;;52.43;38.57;;;;;;;7.45;87.89;96788.22;6140401;28;20720;-83
2022/04/23 06:32:11;;;;;;;54.87;39.80;;;;;;;7.40;88.33;96792.06;6140404;28;20633;-83
2022/04/23 06:35:13;;;;;;;50.43;35.73;;;;;;;7.35;87.73;96790.78;6157099;28;20325;-83
2022/04/23 06:38:15;;;;;;;49.03;37.40;;;;;;;7.35;87.93;96786.34;6158204;28;20732;-83
2022/04/23 06:41:17;;;;;;;51.90;38.10;;;;;;;7.35;87.65;96793.41;6158651;28;20312;-84
2022/04/23 06:44:19;;;;;;;52.73;39.00;;;;;;;7.35;87.65;96794.22;6157537;28;20251;-83
2022/04/23 06:47:21;;;;;;;52.20;39.80;;;;;;;7.36;87.03;96801.16;6139116;28;20225;-83
2022/04/23 06:50:25;;;;;;;49.47;37.67;;;;;;;7.37;87.59;96794.13;6153367;28;20624;-93
2022/04/23 06:53:27;;;;;;;48.83;35.97;;;;;;;7.42;87.38;96802.44;6173513;28;20229;-83
2022/04/23 06:56:33;;;;;;;51.57;35.93;;;;;;;7.43;87.19;96800.63;6140664;28;20699;-84
2022/04/23 06:59:35;;;;;;;45.37;35.80;;;;;;;7.45;86.94;96803.97;6138658;28;20310;-83
2022/04/23 07:02:37;;;;;;;47.47;34.70;;;;;;;7.53;86.81;96804.19;6154285;28;20229;-83
2022/04/23 07:05:39;;;;;;;48.20;36.23;;;;;;;7.56;86.36;96804.78;6156415;28;20232;-83
2022/04/23 07:08:43;;;;;;;45.33;35.33;;;;;;;7.61;86.36;96813.09;6173346;28;20372;-83
2022/04/23 07:11:45;;;;;;;44.30;32.90;;;;;;;7.63;86.05;96820.84;6156331;28;20770;-82
2022/04/23 07:14:47;;;;;;;40.67;31.07;;;;;;;7.64;85.81;96820.72;6155914;28;20230;-83
2022/04/23 07:17:51;;;;;;;37.53;29.10;;;;;;;7.64;86.11;96823.34;6156739;28;20633;-88
2022/04/23 07:20:53;;;;;;;30.83;26.43;;;;;;;7.72;85.73;96826.16;6155947;28;20228;-83
2022/04/23 07:24:04;;;;;;;43.67;33.77;;;;;;;7.76;85.64;96824.97;6156456;28;20320;-83
2022/04/23 07:27:06;;;;;;;38.37;30.17;;;;;;;7.71;85.32;96821.03;6175322;28;20295;-83
2022/04/23 07:30:08;;;;;;;39.50;31.27;;;;;;;7.66;85.48;96816.19;6133421;28;20222;-83
2022/04/23 07:37:28;;;;;;;44.17;32.07;;;;;;;7.65;85.59;96811.88;6152196;28;20615;-83
2022/04/23 07:39:56;;;;;;;38.83;29.73;;;;;;;7.75;84.96;96819.84;6156390;28;20244;-84
2022/04/23 07:42:58;;;;;;;38.43;28.83;;;;;;;7.76;84.29;96817.09;6155420;28;20238;-83
2022/04/23 07:46:00;;;;;;;35.77;30.03;;;;;;;7.79;84.13;96816.81;6139839;28;20741;-83
2022/04/23 07:49:03;;;;;;;30.70;26.90;;;;;;;7.81;84.36;96821.94;6154875;28;20245;-85
2022/04/23 07:52:06;;;;;;;32.43;26.73;;;;;;;7.82;83.09;96820.16;6168414;28;20743;-88
2022/04/23 07:55:09;;;;;;;34.17;26.57;;;;;;;7.90;83.04;96821.19;6150366;28;20226;-84
2022/04/23 07:58:11;;;;;;;32.37;26.63;;;;;;;8.00;83.00;96816.81;6137667;28;20598;-84
2022/04/23 08:01:13;;;;;;;32.77;26.47;;;;;;;8.04;81.83;96817.41;6140724;28;20232;-83
2022/04/23 08:04:16;;;;;;;27.03;23.57;;;;;;;8.13;81.13;96827.97;6154214;28;20244;-84
2022/04/23 08:07:18;;;;;;;34.53;26.97;;;;;;;8.26;81.00;96827.78;6170543;28;20239;-84
2022/04/23 08:10:20;;;;;;;33.20;26.37;;;;;;;8.27;81.39;96832.09;6156419;28;20241;-83
2022/04/23 08:13:24;;;;;;;34.30;27.87;;;;;;;8.32;80.83;96835.19;6170575;28;20561;-83
2022/04/23 08:16:29;;;;;;;35.43;27.43;;;;;;;8.41;81.11;96842.28;6154847;28;20348;-84
2022/04/23 08:19:32;;;;;;;32.30;26.37;;;;;;;8.46;80.93;96845.38;6154225;28;20691;-84
2022/04/23 08:22:35;;;;;;;33.57;26.50;;;;;;;8.41;80.25;96844.91;6146934;28;20725;-84
2022/04/23 08:25:37;;;;;;;29.40;25.00;;;;;;;8.58;81.13;96854.00;6141527;28;20229;-85
2022/04/23 08:32:00;;;;;;;33.93;26.47;;;;;;;8.59;80.10;96841.66;6154158;28;20232;-84
2022/04/23 08:35:04;;;;;;;36.90;28.40;;;;;;;8.67;80.32;96845.34;6154177;28;20505;-83
2022/04/23 08:38:08;;;;;;;33.97;26.87;;;;;;;8.80;79.43;96837.19;6151888;28;20245;-83
2022/04/23 08:41:12;;;;;;;31.83;25.30;;;;;;;9.04;79.04;96839.50;6154678;28;20236;-84
2022/04/23 08:44:16;;;;;;;35.33;27.90;;;;;;;9.35;78.86;96845.53;6143117;28;20803;-83
2022/04/23 08:47:20;;;;;;;32.50;27.17;;;;;;;9.45;78.01;96841.13;6149468;28;20233;-84
2022/04/23 08:50:24;;;;;;;35.40;27.37;;;;;;;9.41;77.45;96837.91;6153740;28;20607;-83
2022/04/23 08:53:30;;;;;;;35.93;27.93;;;;;;;9.28;77.33;96839.97;6152970;28;20329;-84
2022/04/23 08:56:37;;;;;;;31.17;26.63;;;;;;;9.39;77.08;96839.84;6136080;28;20224;-84
2022/04/23 08:59:40;;;;;;;35.37;29.27;;;;;;;9.32;76.96;96835.25;6145895;28;20789;-83
2022/04/23 09:02:43;;;;;;;35.67;28.97;;;;;;;9.25;77.98;96834.97;6167752;28;20241;-84
2022/04/23 09:05:51;;;;;;;32.83;26.80;;;;;;;9.34;77.30;96841.22;6155126;28;20244;-84
2022/04/23 09:09:13;;;;;;;35.37;26.87;;;;;;;9.65;77.93;96829.63;6134593;28;20242;-84
2022/04/23 09:12:16;;;;;;;28.13;24.10;;;;;;;9.90;76.98;96838.75;6153704;28;20420;-84
2022/04/23 09:25:31;;;;;;;32.57;26.30;;;;;;;10.09;74.42;96841.38;6165448;28;20256;-86
2022/04/23 09:28:33;;;;;;;35.33;26.37;;;;;;;10.23;73.20;96840.16;6158988;28;20228;-84
2022/04/23 09:31:35;;;;;;;27.93;22.37;;;;;;;10.53;72.96;96833.81;6153590;28;20234;-84
2022/04/23 09:34:38;;;;;;;28.30;22.43;;;;;;;10.70;72.21;96839.19;6158266;28;20728;-83
2022/04/23 09:41:20;;;;;;;26.63;21.83;;;;;;;11.16;71.26;96820.78;6159468;28;20313;-87
2022/04/23 09:44:29;;;;;;;27.43;22.63;;;;;;;11.57;70.44;96825.53;6133630;28;20245;-85
2022/04/23 09:47:32;;;;;;;28.43;22.50;;;;;;;11.78;69.88;96825.22;6133477;28;20919;-86
2022/04/23 09:50:42;;;;;;;27.47;22.90;;;;;;;11.74;68.37;96819.41;6115881;28;20330;-86
2022/04/23 09:53:47;;;;;;;25.63;22.83;;;;;;;11.64;67.75;96821.28;6171259;28;20261;-86
2022/04/23 09:56:49;;;;;;;31.13;25.20;;;;;;;11.59;68.75;96828.81;6160344;28;20599;-87
2022/04/23 09:59:52;;;;;;;26.57;22.40;;;;;;;11.91;68.55;96824.84;6159997;28;20375;-84
2022/04/23 10:02:59;;;;;;;27.17;23.77;;;;;;;11.98;67.13;96820.63;6141158;28;20219;-84
2022/04/23 10:06:03;;;;;;;30.50;24.73;;;;;;;11.86;67.85;96827.13;6173519;28;20690;-84
2022/04/23 10:09:06;;;;;;;29.13;24.27;;;;;;;12.21;67.97;96829.72;6157169;28;20224;-84
2022/04/23 10:12:12;;;;;;;29.83;24.33;;;;;;;11.64;66.84;96831.03;6157100;28;20376;-84
2022/04/23 10:15:14;;;;;;;28.90;24.47;;;;;;;11.44;68.40;96836.44;6136952;28;20227;-84
2022/04/23 10:18:16;;;;;;;28.80;23.33;;;;;;;11.66;65.82;96837.00;6156930;28;20686;-85
2022/04/23 10:21:26;;;;;;;27.50;23.70;;;;;;;11.88;66.65;96836.56;6157143;28;20726;-84
2022/04/23 10:25:13;;;;;;;27.13;22.83;;;;;;;12.27;67.00;96829.13;6156360;28;20304;-85
2022/04/23 10:28:18;;;;;;;24.90;22.00;;;;;;;12.28;65.72;96828.13;6126631;28;20293;-85
2022/04/23 10:31:20;;;;;;;24.13;21.57;;;;;;;12.42;65.25;96838.16;6156572;28;20240;-84
2022/04/23 10:34:32;;;;;;;28.83;23.40;;;;;;;12.24;65.44;96831.25;6140398;28;20238;-85
2022/04/23 10:37:40;;;;;;;25.20;22.23;;;;;;;12.23;65.23;96833.06;6159209;28;20317;-84
2022/04/23 10:40:42;;;;;;;23.83;21.30;;;;;;;11.81;65.21;96830.22;6142946;28;20236;-84
2022/04/23 10:43:49;;;;;;;28.67;24.63;;;;;;;12.08;65.47;96816.06;6140854;28;20225;-84
2022/04/23 10:46:56;;;;;;;28.40;25.03;;;;;;;12.73;64.59;96819.97;6155501;28;20220;-84
2022/04/23 10:50:18;;;;;;;24.80;21.83;;;;;;;13.17;61.38;96812.75;6133839;28;20766;-84
2022/04/23 10:53:47;;;;;;;22.47;20.13;;;;;;;13.48;61.91;96810.34;6139574;28;20228;-85
2022/04/23 10:56:50;;;;;;;24.07;21.37;;;;;;;13.96;59.05;96804.28;6155230;28;20671;-84
2022/04/23 10:59:53;;;;;;;25.00;19.87;;;;;;;14.77;57.23;96796.22;6155655;28;20258;-84
2022/04/23 11:03:07;;;;;;;21.93;19.57;;;;;;;15.11;58.75;96798.59;6153205;28;20224;-85
2022/04/23 11:12:55;;;;;;;22.87;20.10;;;;;;;15.12;54.45;96786.97;6156210;28;20241;-85
2022/04/23 11:16:13;;;;;;;19.77;17.70;;;;;;;14.19;57.32;96798.28;6137797;28;20234;-85
2022/04/23 11:19:16;;;;;;;21.83;19.53;;;;;;;13.99;58.13;96797.81;6155791;28;20583;-89
2022/04/23 11:22:22;;;;;;;22.73;20.33;;;;;;;13.96;58.30;96791.03;6122652;28;20655;-86
2022/04/23 11:25:24;;;;;;;25.93;21.53;;;;;;;13.92;59.06;96791.50;6160196;28;20230;-86
2022/04/23 11:28:26;;;;;;;20.73;18.63;;;;;;;14.15;58.79;96792.50;6165146;28;20234;-86
2022/04/23 11:31:28;;;;;;;23.67;21.10;;;;;;;13.64;58.78;96791.84;6156503;28;20319;-86
2022/04/23 11:34:31;;;;;;;21.50;19.30;;;;;;;13.73;59.64;96795.31;6139634;28;20229;-86
2022/04/23 11:37:37;;;;;;;20.67;18.57;;;;;;;13.74;58.26;96793.50;6150739;28;20227;-86
2022/04/23 11:40:39;;;;;;;20.73;18.53;;;;;;;13.45;58.95;96797.44;6158166;28;20245;-86
2022/04/23 11:43:42;;;;;;;22.47;19.73;;;;;;;13.28;60.14;96788.59;6158735;28;21314;-86
2022/04/23 11:46:48;;;;;;;22.80;18.90;;;;;;;13.34;60.03;96799.56;6133497;28;20240;-87
2022/04/23 11:49:50;;;;;;;21.67;19.43;;;;;;;13.10;61.38;96800.25;6145173;28;20240;-86
2022/04/23 11:53:02;;;;;;;22.17;19.37;;;;;;;12.88;61.52;96793.72;6130488;28;20229;-86
2022/04/23 11:56:04;;;;;;;19.83;17.03;;;;;;;12.94;61.91;96798.41;6131846;28;20233;-85
2022/04/23 11:59:09;;;;;;;22.30;19.90;;;;;;;13.06;61.12;96806.88;6138641;28;20240;-86
2022/04/23 12:02:22;;;;;;;20.87;18.70;;;;;;;12.77;61.92;96807.25;6154546;28;20267;-86
2022/04/23 12:05:34;;;;;;;20.17;18.10;;;;;;;13.16;62.13;96803.16;6154393;28;20233;-87
2022/04/23 12:08:36;;;;;;;21.10;18.70;;;;;;;13.08;61.11;96802.25;6155087;28;20234;-86
2022/04/23 12:11:39;;;;;;;21.90;19.67;;;;;;;12.81;61.83;96805.94;6154939;28;20240;-86
2022/04/23 12:14:48;;;;;;;20.50;18.23;;;;;;;13.06;61.97;96799.78;6153673;28;20375;-87
2022/04/23 12:17:54;;;;;;;21.87;18.43;;;;;;;14.11;60.09;96798.31;6139479;28;20245;-88
2022/04/23 12:21:08;;;;;;;21.47;17.77;;;;;;;14.75;57.86;96802.72;6154568;28;20412;-87
2022/04/23 12:24:10;;;;;;;23.63;20.77;;;;;;;14.78;56.75;96800.53;6131059;28;20368;-88
2022/04/23 12:27:13;;;;;;;21.93;19.57;;;;;;;14.58;58.10;96798.44;6153850;28;20222;-86
2022/04/23 12:40:46;;;;;;;22.33;19.93;;;;;;;15.63;54.84;96775.91;6170584;28;20736;-86
2022/04/23 12:43:48;;;;;;;21.93;19.63;;;;;;;15.38;54.95;96777.84;6150878;28;20254;-86
2022/04/23 12:46:59;;;;;;;20.27;18.23;;;;;;;15.68;54.55;96766.38;6153318;28;20225;-86
2022/04/23 12:50:03;;;;;;;22.77;20.37;;;;;;;15.33;54.96;96762.44;6129962;28;20589;-86
2022/04/23 12:53:05;;;;;;;22.40;20.20;;;;;;;15.13;55.99;96767.34;6144827;28;20301;-86
2022/04/23 12:56:08;;;;;;;20.40;18.37;;;;;;;14.94;56.82;96757.16;6154525;28;20620;-86
2022/04/23 12:59:10;;;;;;;19.93;18.03;;;;;;;14.92;57.78;96768.94;6154319;28;20276;-86
2022/04/23 13:02:12;;;;;;;23.73;21.23;;;;;;;14.66;56.75;96759.44;6138534;28;20222;-86
2022/04/23 13:05:14;;;;;;;19.03;16.90;;;;;;;14.44;57.72;96762.78;6153994;28;20313;-86
2022/04/23 13:11:37;;;;;;;18.03;16.03;;;;;;;14.37;58.26;96743.22;6169594;28;20742;-88
2022/04/23 13:14:41;;;;;;;18.77;16.87;;;;;;;15.21;56.58;96737.25;6135703;28;20700;-87
2022/04/23 13:17:46;;;;;;;18.10;16.30;;;;;;;15.19;56.57;96733.09;6152024;28;20284;-87
2022/04/23 13:20:48;;;;;;;18.23;16.33;;;;;;;15.06;56.54;96728.38;6149593;28;20226;-87
2022/04/23 13:23:54;;;;;;;18.87;16.87;;;;;;;14.56;58.11;96729.59;6149040;28;20230;-87
2022/04/23 13:26:57;;;;;;;19.20;16.17;;;;;;;14.67;58.41;96728.38;6150792;28;20242;-87
2022/04/23 13:29:59;;;;;;;19.00;17.00;;;;;;;14.50;58.63;96727.59;6150883;28;20322;-86
2022/04/23 13:33:02;;;;;;;19.27;17.10;;;;;;;14.45;59.38;96729.94;6155812;28;20328;-86
2022/04/23 13:36:04;;;;;;;16.73;14.93;;;;;;;14.42;59.65;96726.78;6139291;28;20289;-87
2022/04/23 13:39:06;;;;;;;17.13;15.30;;;;;;;14.32;59.86;96730.44;6137070;28;20210;-89
2022/04/23 13:42:09;;;;;;;20.27;17.47;;;;;;;14.19;59.82;96722.16;6154027;28;20662;-87
2022/04/23 13:45:16;;;;;;;22.27;18.83;;;;;;;13.88;60.55;96730.00;6154657;28;20221;-87
2022/04/23 13:48:18;;;;;;;16.53;14.83;;;;;;;13.77;61.56;96732.19;6156127;28;20225;-87
2022/04/23 13:51:23;;;;;;;21.53;19.27;;;;;;;13.55;61.53;96733.66;6154519;28;20364;-85
2022/04/23 13:54:25;;;;;;;19.60;16.70;;;;;;;13.35;62.61;96734.97;6173306;28;20232;-85
2022/04/23 13:57:27;;;;;;;19.50;17.50;;;;;;;13.48;62.73;96749.38;6157870;28;20264;-85
2022/04/23 14:00:30;;;;;;;18.90;16.60;;;;;;;13.51;63.25;96740.28;6157886;28;20237;-86
2022/04/23 14:10:14;;;;;;;21.00;18.60;;;;;;;13.32;62.79;96722.84;6148617;28;20699;-86
2022/04/23 14:13:16;;;;;;;21.43;16.80;;;;;;;13.10;62.98;96723.44;6159465;28;20238;-85
2022/04/23 14:16:18;;;;;;;18.87;16.77;;;;;;;13.04;64.21;96722.28;6141947;28;20602;-85
2022/04/23 14:19:20;;;;;;;24.30;20.43;;;;;;;13.04;63.83;96718.81;6148042;28;20236;-85
2022/04/23 14:22:22;;;;;;;19.63;17.53;;;;;;;12.89;64.28;96718.59;6127577;28;20234;-85
2022/04/23 14:25:24;;;;;;;20.40;18.17;;;;;;;12.82;64.53;96723.69;6158640;28;20591;-85
2022/04/23 14:28:26;;;;;;;25.20;19.83;;;;;;;12.71;64.62;96724.00;6157421;28;20635;-85
2022/04/23 14:31:28;;;;;;;20.30;17.13;;;;;;;12.62;65.29;96714.38;6142250;28;20386;-86
2022/04/23 14:34:31;;;;;;;21.87;18.70;;;;;;;12.63;65.78;96717.84;6157320;28;20222;-86
2022/04/23 14:37:33;;;;;;;22.57;18.83;;;;;;;12.61;65.31;96717.16;6156564;28;20233;-86
2022/04/23 14:40:37;;;;;;;31.57;24.60;;;;;;;12.60;65.29;96708.38;6134187;28;20238;-86
2022/04/23 14:43:40;;;;;;;30.17;24.30;;;;;;;12.37;65.43;96708.16;6156781;28;20296;-86
2022/04/23 14:46:43;;;;;;;26.17;20.53;;;;;;;12.25;65.84;96712.03;6148012;28;20261;-86
2022/04/23 14:49:45;;;;;;;26.33;20.80;;;;;;;12.19;66.25;96702.06;6134394;28;20315;-85
2022/04/23 14:56:07;;;;;;;21.00;18.03;;;;;;;12.37;67.44;96702.03;6156784;28;20238;-86
2022/04/23 14:59:09;;;;;;;27.03;21.93;;;;;;;12.47;67.81;96695.63;6156706;28;20313;-85
2022/04/23 15:02:11;;;;;;;29.30;21.03;;;;;;;12.51;67.39;96688.19;6156751;28;20753;-85
2022/04/23 15:05:15;;;;;;;23.90;20.17;;;;;;;12.55;67.48;96692.19;6140113;28;20228;-86
2022/04/23 15:08:17;;;;;;;23.60;19.13;;;;;;;12.53;67.91;96688.84;6172327;28;20320;-85
2022/04/23 15:11:19;;;;;;;23.93;19.67;;;;;;;12.47;67.64;96690.34;6157055;28;20739;-85
2022/04/23 15:14:21;;;;;;;21.63;17.27;;;;;;;12.49;68.11;96684.84;6156063;28;20225;-85
2022/04/23 15:17:26;;;;;;;23.07;18.97;;;;;;;12.71;68.30;96691.41;6139364;28;20230;-86
2022/04/23 15:20:28;;;;;;;23.47;20.07;;;;;;;12.90;66.71;96686.66;6157120;28;20605;-85
2022/04/23 15:23:31;;;;;;;22.27;18.30;;;;;;;13.00;65.72;96683.03;6156558;28;20242;-86
2022/04/23 15:26:33;;;;;;;21.63;18.67;;;;;;;12.82;65.90;96686.63;6147229;28;20656;-85
2022/04/23 15:29:35;;;;;;;19.67;17.53;;;;;;;12.66;66.78;96691.06;6139423;28;20312;-85
2022/04/23 15:32:37;;;;;;;20.37;16.53;;;;;;;12.54;67.11;96691.34;6140474;28;20238;-85
2022/04/23 15:35:39;;;;;;;23.97;18.97;;;;;;;12.42;67.21;96691.78;6147124;28;20812;-85
2022/04/23 15:38:42;;;;;;;17.13;14.80;;;;;;;12.30;67.61;96693.88;6155413;28;20236;-85
2022/04/23 15:41:43;;;;;;;15.03;13.43;;;;;;;12.29;68.27;96689.56;6154871;28;20307;-85
2022/04/23 15:44:46;;;;;;;19.20;16.70;;;;;;;12.19;69.23;96692.31;6132865;28;20307;-85
2022/04/23 15:47:48;;;;;;;17.93;15.57;;;;;;;12.03;69.92;96686.13;6154229;28;20322;-86
2022/04/23 15:50:50;;;;;;;16.50;13.77;;;;;;;12.04;70.48;96693.06;6131042;28;20239;-85
2022/04/23 15:53:52;;;;;;;18.20;15.97;;;;;;;12.04;70.46;96683.34;6154372;28;20766;-85
2022/04/23 15:56:55;;;;;;;14.03;12.30;;;;;;;12.05;70.26;96677.06;6155302;28;20250;-85
2022/04/23 15:59:57;;;;;;;14.17;12.60;;;;;;;12.13;70.74;96677.09;6140503;28;20335;-85
2022/04/23 16:06:26;;;;;;;15.87;14.00;;;;;;;11.98;70.44;96675.19;6152995;28;20244;-85